createdAt,value
2023-06-19T00:01:41.888Z,93643.28
2023-06-19T00:04:13.475Z,93639.78
2023-06-19T00:06:41.534Z,93646.41
2023-06-19T00:09:10.336Z,93640.03
2023-06-19T00:11:38.147Z,93647.25
2023-06-19T00:14:06.350Z,93640.31
2023-06-19T00:16:34.399Z,93643.88
2023-06-19T00:19:04.757Z,93644.19
2023-06-19T00:21:32.848Z,93640.66
2023-06-19T00:24:00.872Z,93646.00
2023-06-19T00:26:28.988Z,93644.41
2023-06-19T00:28:57.773Z,93642.59
2023-06-19T00:31:25.614Z,93646.13
2023-06-19T00:33:53.505Z,93635.13
2023-06-19T00:36:22.569Z,93635.94
2023-06-19T00:38:50.641Z,93639.44
2023-06-19T00:41:19.697Z,93638.97
2023-06-19T00:43:47.804Z,93642.13
2023-06-19T00:46:15.935Z,93642.06
2023-06-19T00:48:44.298Z,93640.22
2023-06-19T00:51:12.344Z,93642.59
2023-06-19T00:53:40.716Z,93633.19
2023-06-19T00:56:10.156Z,93634.22
2023-06-19T00:58:38.174Z,93635.34
2023-06-19T01:01:09.247Z,93632.66
2023-06-19T01:03:38.771Z,93634.81
2023-06-19T01:06:15.565Z,93631.28
2023-06-19T01:08:56.792Z,93636.66
2023-06-19T01:11:33.566Z,93633.44
2023-06-19T01:14:16.970Z,93635.28
2023-06-19T01:16:46.035Z,93634.22
2023-06-19T01:19:19.150Z,93625.66
2023-06-19T01:21:48.137Z,93620.84
2023-06-19T01:24:16.231Z,93630.91
2023-06-19T01:26:47.137Z,93623.09
2023-06-19T01:29:17.454Z,93613.69
2023-06-19T01:32:06.257Z,93623.28
2023-06-19T01:34:38.547Z,93630.53
2023-06-19T01:37:11.006Z,93631.09
2023-06-19T01:39:39.335Z,93628.38
2023-06-19T01:42:10.630Z,93638.59
2023-06-19T01:44:39.046Z,93630.56
2023-06-19T01:47:13.517Z,93636.22
2023-06-19T01:49:44.174Z,93633.25
2023-06-19T01:52:12.303Z,93629.78
2023-06-19T01:54:40.719Z,93625.53
2023-06-19T01:57:10.049Z,93634.13
2023-06-19T01:59:38.114Z,93635.75
2023-06-19T02:02:08.046Z,93635.19
2023-06-19T02:04:36.168Z,93634.66
2023-06-19T02:07:05.206Z,93643.03
2023-06-19T02:09:33.080Z,93649.16
2023-06-19T02:12:01.331Z,93643.25
2023-06-19T02:14:29.254Z,93639.78
2023-06-19T02:16:57.169Z,93643.00
2023-06-19T02:19:25.115Z,93655.34
2023-06-19T02:21:53.098Z,93651.31
2023-06-19T02:24:20.992Z,93643.03
2023-06-19T02:26:49.108Z,93651.09
2023-06-19T02:29:17.247Z,93654.31
2023-06-19T02:31:46.040Z,93657.53
2023-06-19T02:34:14.142Z,93662.94
2023-06-19T02:36:42.142Z,93666.66
2023-06-19T02:39:10.815Z,93656.75
2023-06-19T02:41:39.487Z,93667.22
2023-06-19T02:44:07.255Z,93661.84
2023-06-19T02:46:35.205Z,93674.16
2023-06-19T02:49:03.317Z,93669.63
2023-06-19T02:52:53.250Z,93677.41
2023-06-19T02:55:22.395Z,93679.28
2023-06-19T02:57:50.344Z,93668.59
2023-06-19T03:00:18.571Z,93683.56
2023-06-19T03:02:49.604Z,93675.53
2023-06-19T03:05:17.828Z,93680.34
2023-06-19T03:07:46.215Z,93675.25
2023-06-19T03:10:14.280Z,93677.69
2023-06-19T03:12:43.021Z,93683.03
2023-06-19T03:15:11.393Z,93681.16
2023-06-19T03:17:43.048Z,93687.31
2023-06-19T03:20:13.783Z,93679.84
2023-06-19T03:22:47.838Z,93677.16
2023-06-19T03:25:17.771Z,93672.56
2023-06-19T03:27:45.885Z,93663.22
2023-06-19T03:30:14.230Z,93669.91
2023-06-19T03:32:44.062Z,93664.81
2023-06-19T03:35:20.692Z,93662.69
2023-06-19T03:37:49.106Z,93664.56
2023-06-19T03:40:18.496Z,93666.44
2023-06-19T03:42:49.942Z,93663.75
2023-06-19T03:45:18.159Z,93662.66
2023-06-19T03:47:47.252Z,93665.88
2023-06-19T03:50:21.120Z,93658.91
2023-06-19T03:52:50.485Z,93660.78
2023-06-19T03:55:20.236Z,93655.94
2023-06-19T03:57:51.441Z,93662.09
2023-06-19T04:00:40.626Z,93663.75
2023-06-19T04:03:10.740Z,93661.06
2023-06-19T04:05:40.250Z,93665.88
2023-06-19T04:08:08.307Z,93663.19
2023-06-19T04:10:36.329Z,93657.03
2023-06-19T04:13:08.236Z,93655.41
2023-06-19T04:15:38.778Z,93658.59
2023-06-19T04:18:06.992Z,93659.97
2023-06-19T04:20:35.275Z,93660.50
2023-06-19T04:23:03.339Z,93656.78
2023-06-19T04:25:31.327Z,93661.59
2023-06-19T04:27:59.391Z,93646.59
2023-06-19T04:30:27.537Z,93664.81
2023-06-19T04:32:56.184Z,93656.78
2023-06-19T04:35:25.035Z,93660.53
2023-06-19T04:37:54.413Z,93655.13
2023-06-19T04:40:22.564Z,93660.50
2023-06-19T04:42:50.674Z,93659.72
2023-06-19T04:45:18.738Z,93633.72
2023-06-19T04:47:53.438Z,93651.97
2023-06-19T04:50:23.427Z,93658.41
2023-06-19T04:52:52.855Z,93640.97
2023-06-19T04:55:21.295Z,93663.72
2023-06-19T04:57:49.519Z,93666.13
2023-06-19T05:00:20.673Z,93657.31
2023-06-19T05:02:49.253Z,93658.66
2023-06-19T05:05:18.834Z,93653.28
2023-06-19T05:07:48.499Z,93647.34
2023-06-19T05:10:16.715Z,93643.59
2023-06-19T05:12:44.754Z,93652.44
2023-06-19T05:15:12.858Z,93637.56
2023-06-19T05:17:40.939Z,93641.53
2023-06-19T05:20:09.673Z,93641.97
2023-06-19T05:22:38.448Z,93634.88
2023-06-19T05:25:07.035Z,93636.41
2023-06-19T05:27:35.013Z,93637.69
2023-06-19T05:30:03.190Z,93638.13
2023-06-19T05:32:32.005Z,93635.84
2023-06-19T05:35:00.193Z,93646.66
2023-06-19T05:37:28.483Z,93647.94
2023-06-19T05:39:57.829Z,93644.28
2023-06-19T05:42:26.093Z,93647.88
2023-06-19T05:44:54.675Z,93662.47
2023-06-19T05:47:24.874Z,93658.47
2023-06-19T05:49:52.974Z,93648.91
2023-06-19T05:52:22.293Z,93651.06
2023-06-19T05:54:50.655Z,93651.38
2023-06-19T05:57:22.202Z,93647.59
2023-06-19T05:59:50.799Z,93644.47
2023-06-19T06:02:20.484Z,93648.63
2023-06-19T06:04:48.958Z,93648.06
2023-06-19T06:07:17.213Z,93647.06
2023-06-19T06:09:45.231Z,93646.06
2023-06-19T06:12:13.400Z,93640.50
2023-06-19T06:14:44.478Z,93650.94
2023-06-19T06:17:12.547Z,93655.75
2023-06-19T06:19:40.571Z,93655.66
2023-06-19T06:22:08.717Z,93607.72
2023-06-19T06:24:36.908Z,93656.38
2023-06-19T06:27:05.057Z,93660.41
2023-06-19T06:29:32.902Z,93667.50
2023-06-19T06:32:11.028Z,93665.81
2023-06-19T06:34:39.204Z,93663.06
2023-06-19T06:37:07.259Z,93664.53
2023-06-19T06:39:35.396Z,93656.97
2023-06-19T06:42:03.533Z,93665.91
2023-06-19T06:44:31.531Z,93659.78
2023-06-19T06:46:59.550Z,93647.41
2023-06-19T06:49:27.886Z,93666.38
2023-06-19T06:51:58.016Z,93658.34
2023-06-19T06:54:26.553Z,93657.41
2023-06-19T06:56:59.538Z,93663.88
2023-06-19T06:59:28.896Z,93657.41
2023-06-19T07:02:00.311Z,93667.38
2023-06-19T07:04:28.472Z,93643.69
2023-06-19T07:06:56.499Z,93671.00
2023-06-19T07:09:24.478Z,93666.53
2023-06-19T07:11:53.918Z,93675.47
2023-06-19T07:14:22.338Z,93669.16
2023-06-19T07:16:51.934Z,93667.28
2023-06-19T07:19:20.132Z,93664.50
2023-06-19T07:21:48.408Z,93663.50
2023-06-19T07:24:16.665Z,93665.78
2023-06-19T07:26:44.728Z,93665.75
2023-06-19T07:29:12.797Z,93670.59
2023-06-19T07:31:40.856Z,93671.59
2023-06-19T07:34:09.217Z,93669.13
2023-06-19T07:36:37.361Z,93676.78
2023-06-19T07:39:05.561Z,93670.91
2023-06-19T07:41:33.635Z,93673.59
2023-06-19T07:44:01.793Z,93669.53
2023-06-19T07:46:29.862Z,93676.06
2023-06-19T07:48:58.153Z,93671.88
2023-06-19T07:51:26.296Z,93671.41
2023-06-19T07:53:54.482Z,93680.97
2023-06-19T07:56:22.568Z,93662.78
2023-06-19T07:58:50.723Z,93680.28
2023-06-19T08:01:18.759Z,93677.25
2023-06-19T08:03:47.371Z,93675.16
2023-06-19T08:06:17.631Z,93677.09
2023-06-19T08:08:45.672Z,93683.31
2023-06-19T08:11:13.641Z,93672.91
2023-06-19T08:13:41.943Z,93677.38
2023-06-19T08:16:11.797Z,93672.56
2023-06-19T08:18:39.971Z,93670.16
2023-06-19T08:21:07.963Z,93686.44
2023-06-19T08:23:36.185Z,93660.91
2023-06-19T08:26:04.296Z,93674.00
2023-06-19T08:28:35.627Z,93682.97
2023-06-19T08:31:03.917Z,93685.41
2023-06-19T08:33:31.975Z,93683.38
2023-06-19T08:35:59.987Z,93682.44
2023-06-19T08:38:30.419Z,93683.56
2023-06-19T08:40:58.805Z,93674.28
2023-06-19T08:43:26.927Z,93678.41
2023-06-19T08:46:12.261Z,93668.13
2023-06-19T08:48:40.607Z,93675.91
2023-06-19T08:51:10.659Z,93682.34
2023-06-19T08:53:47.080Z,93682.34
2023-06-19T08:56:16.034Z,93674.44
2023-06-19T08:58:44.754Z,93663.69
2023-06-19T09:01:15.572Z,93668.25
2023-06-19T09:03:43.680Z,93670.47
2023-06-19T09:06:12.168Z,93667.53
2023-06-19T09:08:40.276Z,93677.47
2023-06-19T09:11:10.687Z,93676.78
2023-06-19T09:13:39.337Z,93672.34
2023-06-19T09:16:09.391Z,93683.63
2023-06-19T09:18:50.128Z,93665.75
2023-06-19T09:21:25.630Z,93669.63
2023-06-19T09:23:53.933Z,93671.44
2023-06-19T09:26:29.240Z,93670.13
2023-06-19T09:28:57.243Z,93675.53
2023-06-19T09:31:35.306Z,93673.03
2023-06-19T09:34:03.524Z,93668.97
2023-06-19T09:36:33.487Z,93669.72
2023-06-19T09:39:03.652Z,93670.31
2023-06-19T09:41:32.175Z,93657.97
2023-06-19T09:44:01.312Z,93674.94
2023-06-19T09:46:34.985Z,93668.09
2023-06-19T09:49:05.704Z,93675.88
2023-06-19T09:51:38.545Z,93671.50
2023-06-19T09:54:08.026Z,93664.06
2023-06-19T09:56:37.201Z,93663.63
2023-06-19T09:59:06.692Z,93661.69
2023-06-19T10:01:34.925Z,93662.56
2023-06-19T10:04:11.160Z,93663.66
2023-06-19T10:06:50.033Z,93656.84
2023-06-19T10:09:21.221Z,93646.53
2023-06-19T10:11:53.592Z,93648.63
2023-06-19T10:14:22.737Z,93653.28
2023-06-19T10:16:51.037Z,93637.22
2023-06-19T10:19:22.114Z,93636.78
2023-06-19T10:21:53.908Z,93632.53
2023-06-19T10:24:25.609Z,93637.09
2023-06-19T10:27:01.650Z,93631.84
2023-06-19T10:29:48.699Z,93636.22
2023-06-19T10:32:19.597Z,93622.75
2023-06-19T10:34:50.292Z,93628.47
2023-06-19T10:37:18.747Z,93627.59
2023-06-19T10:39:46.598Z,93628.94
2023-06-19T10:42:14.549Z,93629.06
2023-06-19T10:44:43.626Z,93623.38
2023-06-19T10:47:11.820Z,93627.59
2023-06-19T10:49:40.246Z,93626.44
2023-06-19T10:52:08.851Z,93628.81
2023-06-19T10:54:36.943Z,93628.44
2023-06-19T10:57:06.270Z,93627.72
2023-06-19T10:59:35.430Z,93620.44
2023-06-19T11:02:03.845Z,93627.19
2023-06-19T11:04:34.920Z,93603.91
2023-06-19T11:07:14.987Z,93622.78
2023-06-19T11:09:45.094Z,93622.78
2023-06-19T11:12:13.805Z,93624.59
2023-06-19T11:14:43.187Z,93605.53
2023-06-19T11:17:11.545Z,93627.94
2023-06-19T11:19:43.297Z,93620.66
2023-06-19T11:22:12.421Z,93633.13
2023-06-19T11:24:47.636Z,93626.34
2023-06-19T11:27:25.879Z,93616.19
2023-06-19T11:30:00.845Z,93618.03
2023-06-19T11:32:49.713Z,93624.09
2023-06-19T11:35:18.389Z,93599.69
2023-06-19T11:37:46.398Z,93616.03
2023-06-19T11:40:16.552Z,93601.69
2023-06-19T11:42:50.927Z,93595.75
2023-06-19T11:45:19.558Z,93606.34
2023-06-19T11:47:48.657Z,93606.50
2023-06-19T11:50:18.559Z,93596.88
2023-06-19T11:52:49.373Z,93602.41
2023-06-19T11:55:17.648Z,93596.50
2023-06-19T11:57:45.968Z,93565.34
2023-06-19T12:00:14.899Z,93567.31
2023-06-19T12:02:43.239Z,93595.94
2023-06-19T12:05:12.233Z,93597.16
2023-06-19T12:07:40.668Z,93593.41
2023-06-19T12:10:11.506Z,93589.31
2023-06-19T12:12:40.106Z,93598.91
2023-06-19T12:15:08.804Z,93594.88
2023-06-19T12:17:37.021Z,93597.97
2023-06-19T12:20:09.149Z,93598.59
2023-06-19T12:22:37.213Z,93600.66
2023-06-19T12:25:05.531Z,93598.03
2023-06-19T12:27:34.650Z,93598.72
2023-06-19T12:30:03.847Z,93602.84
2023-06-19T12:32:34.124Z,93601.13
2023-06-19T12:35:04.322Z,93594.09
2023-06-19T12:37:34.532Z,93597.28
2023-06-19T12:40:02.557Z,93592.28
2023-06-19T12:42:30.640Z,93591.25
2023-06-19T12:44:58.735Z,93595.94
2023-06-19T12:47:26.856Z,93596.84
2023-06-19T12:49:54.852Z,93590.66
2023-06-19T12:52:22.891Z,93587.50
2023-06-19T12:54:50.828Z,93589.63
2023-06-19T12:57:18.986Z,93589.31
2023-06-19T12:59:47.192Z,93579.28
2023-06-19T13:02:15.781Z,93568.78
2023-06-19T13:04:44.023Z,93587.28
2023-06-19T13:07:12.202Z,93596.50
2023-06-19T13:09:43.402Z,93596.03
2023-06-19T13:12:11.781Z,93599.75
2023-06-19T13:14:39.673Z,93589.88
2023-06-19T13:17:08.277Z,93578.03
2023-06-19T13:19:36.525Z,93588.16
2023-06-19T13:22:04.925Z,93576.69
2023-06-19T13:24:33.606Z,93576.34
2023-06-19T13:27:01.705Z,93581.16
2023-06-19T13:29:30.077Z,93575.47
2023-06-19T13:32:05.657Z,93582.00
2023-06-19T13:34:33.668Z,93570.00
2023-06-19T13:37:01.784Z,93578.22
2023-06-19T13:39:30.225Z,93584.00
2023-06-19T13:42:00.737Z,93587.06
2023-06-19T13:44:29.018Z,93584.25
2023-06-19T13:46:57.105Z,93591.13
2023-06-19T13:49:25.705Z,93591.94
2023-06-19T13:51:54.581Z,93586.72
2023-06-19T13:54:23.040Z,93586.97
2023-06-19T13:56:52.511Z,93580.44
2023-06-19T13:59:20.834Z,93584.16
2023-06-19T14:01:49.138Z,93580.09
2023-06-19T14:04:17.604Z,93579.91
2023-06-19T14:06:46.358Z,93578.31
2023-06-19T14:09:15.281Z,93575.75
2023-06-19T14:11:44.192Z,93572.25
2023-06-19T14:14:12.308Z,93573.50
2023-06-19T14:16:40.614Z,93564.44
2023-06-19T14:19:08.559Z,93556.25
2023-06-19T14:21:36.943Z,93558.28
2023-06-19T14:24:06.171Z,93547.06
2023-06-19T14:26:34.912Z,93552.81
2023-06-19T14:29:03.226Z,93558.06
2023-06-19T14:31:31.851Z,93555.91
2023-06-19T14:34:00.371Z,93553.50
2023-06-19T14:36:29.557Z,93552.25
2023-06-19T14:38:58.122Z,93546.34
2023-06-19T14:41:26.602Z,93546.16
2023-06-19T14:43:55.545Z,93559.31
2023-06-19T14:46:38.181Z,93558.06
2023-06-19T14:49:09.562Z,93549.53
2023-06-19T14:51:38.217Z,93544.19
2023-06-19T14:54:07.166Z,93544.72
2023-06-19T14:56:35.964Z,93552.34
2023-06-19T14:59:05.069Z,93546.75
2023-06-19T15:01:33.952Z,93549.53
2023-06-19T15:04:02.281Z,93538.97
2023-06-19T15:06:30.604Z,93541.38
2023-06-19T15:08:59.088Z,93532.97
2023-06-19T15:11:29.349Z,93540.50
2023-06-19T15:13:57.374Z,93535.78
2023-06-19T15:16:26.746Z,93541.66
2023-06-19T15:18:55.673Z,93541.66
2023-06-19T15:21:23.954Z,93540.53
2023-06-19T15:23:55.810Z,93532.50
2023-06-19T15:26:24.241Z,93539.06
2023-06-19T15:28:54.972Z,93542.47
2023-06-19T15:31:24.110Z,93549.97
2023-06-19T15:33:52.337Z,93536.69
2023-06-19T15:36:20.467Z,93537.13
2023-06-19T15:38:49.376Z,93546.13
2023-06-19T15:41:17.391Z,93542.13
2023-06-19T15:43:45.501Z,93547.91
2023-06-19T15:46:15.656Z,93540.53
2023-06-19T15:48:44.890Z,93546.63
2023-06-19T15:51:13.038Z,93546.50
2023-06-19T15:53:40.988Z,93537.56
2023-06-19T15:56:10.136Z,93524.06
2023-06-19T15:58:38.477Z,93540.94
2023-06-19T16:01:06.605Z,93555.03
2023-06-19T16:03:34.695Z,93546.19
2023-06-19T16:06:07.923Z,93545.63
2023-06-19T16:08:36.683Z,93547.25
2023-06-19T16:11:06.412Z,93549.38
2023-06-19T16:13:34.589Z,93552.22
2023-06-19T16:16:02.768Z,93549.81
2023-06-19T16:18:30.888Z,93548.38
2023-06-19T16:20:58.895Z,93547.09
2023-06-19T16:23:27.131Z,93556.91
2023-06-19T16:25:55.028Z,93562.56
2023-06-19T16:28:23.228Z,93558.72
2023-06-19T16:30:51.210Z,93543.53
2023-06-19T16:33:19.360Z,93556.59
2023-06-19T16:35:47.464Z,93555.78
2023-06-19T16:38:15.474Z,93556.38
2023-06-19T16:40:44.163Z,93554.66
2023-06-19T16:43:12.237Z,93559.09
2023-06-19T16:45:40.161Z,93556.06
2023-06-19T16:48:08.287Z,93550.94
2023-06-19T16:50:36.652Z,93561.19
2023-06-19T16:53:04.827Z,93564.91
2023-06-19T16:55:32.894Z,93562.28
2023-06-19T16:58:00.978Z,93559.72
2023-06-19T17:00:29.014Z,93566.94
2023-06-19T17:02:58.471Z,93569.22
2023-06-19T17:05:28.042Z,93576.78
2023-06-19T17:07:56.164Z,93571.53
2023-06-19T17:10:24.828Z,93578.75
2023-06-19T17:12:53.206Z,93585.97
2023-06-19T17:15:21.228Z,93586.97
2023-06-19T17:17:49.486Z,93583.50
2023-06-19T17:20:17.470Z,93592.78
2023-06-19T17:22:45.579Z,93599.88
2023-06-19T17:25:13.663Z,93598.94
2023-06-19T17:27:42.219Z,93599.66
2023-06-19T17:30:12.456Z,93594.63
2023-06-19T17:32:42.045Z,93596.69
2023-06-19T17:35:10.480Z,93606.16
2023-06-19T17:37:38.933Z,93605.25
2023-06-19T17:40:09.091Z,93613.09
2023-06-19T17:42:38.657Z,93605.28
2023-06-19T17:45:07.572Z,93600.69
2023-06-19T17:47:35.884Z,93612.03
2023-06-19T17:50:04.107Z,93590.38
2023-06-19T17:52:32.119Z,93617.00
2023-06-19T17:55:00.222Z,93619.88
2023-06-19T17:57:28.279Z,93623.44
2023-06-19T17:59:56.339Z,93626.78
2023-06-19T18:02:24.456Z,93635.13
2023-06-19T18:04:53.000Z,93633.03
2023-06-19T18:07:21.047Z,93633.50
2023-06-19T18:09:48.973Z,93638.44
2023-06-19T18:12:18.650Z,93630.63
2023-06-19T18:14:46.812Z,93639.88
2023-06-19T18:17:15.143Z,93629.66
2023-06-19T18:19:43.152Z,93644.00
2023-06-19T18:22:11.232Z,93630.59
2023-06-19T18:24:39.311Z,93650.56
2023-06-19T18:27:07.888Z,93657.06
2023-06-19T18:29:36.095Z,93655.13
2023-06-19T18:32:04.635Z,93660.72
2023-06-19T18:34:32.481Z,93662.38
2023-06-19T18:37:00.450Z,93662.81
2023-06-19T18:39:28.469Z,93656.84
2023-06-19T18:41:56.524Z,93665.03
2023-06-19T18:44:24.557Z,93669.75
2023-06-19T18:46:52.685Z,93676.31
2023-06-19T18:49:20.737Z,93679.94
2023-06-19T18:51:48.865Z,93678.97
2023-06-19T18:54:16.899Z,93681.19
2023-06-19T18:56:45.279Z,93689.94
2023-06-19T18:59:13.697Z,93681.13
2023-06-19T19:01:41.916Z,93694.81
2023-06-19T19:04:10.061Z,93655.34
2023-06-19T19:06:38.059Z,93693.84
2023-06-19T19:09:06.152Z,93689.91
2023-06-19T19:11:35.317Z,93694.72
2023-06-19T19:14:03.656Z,93698.66
2023-06-19T19:16:31.889Z,93702.84
2023-06-19T19:18:59.896Z,93698.84
2023-06-19T19:21:27.968Z,93704.72
2023-06-19T19:23:56.608Z,93709.44
2023-06-19T19:26:24.882Z,93718.91
2023-06-19T19:28:52.904Z,93722.31
2023-06-19T19:31:20.874Z,93717.97
2023-06-19T19:33:48.980Z,93716.88
2023-06-19T19:36:17.032Z,93720.59
2023-06-19T19:38:45.073Z,93725.91
2023-06-19T19:41:13.188Z,93725.22
2023-06-19T19:43:41.177Z,93731.44
2023-06-19T19:46:11.658Z,93723.81
2023-06-19T19:48:39.608Z,93735.53
2023-06-19T19:51:07.679Z,93727.31
2023-06-19T19:53:35.733Z,93740.31
2023-06-19T19:56:03.725Z,93736.31
2023-06-19T19:58:31.777Z,93730.13
2023-06-19T20:00:59.714Z,93732.69
2023-06-19T20:03:27.847Z,93736.31
2023-06-19T20:05:56.416Z,93730.28
2023-06-19T20:08:24.461Z,93735.00
2023-06-19T20:10:52.587Z,93734.88
2023-06-19T20:13:23.650Z,93739.97
2023-06-19T20:15:52.003Z,93731.75
2023-06-19T20:18:20.168Z,93744.84
2023-06-19T20:20:48.342Z,93741.88
2023-06-19T20:23:16.322Z,93743.75
2023-06-19T20:25:45.898Z,93743.44
2023-06-19T20:28:13.979Z,93749.25
2023-06-19T20:30:42.050Z,93745.63
2023-06-19T20:33:10.270Z,93747.22
2023-06-19T20:35:38.333Z,93739.91
2023-06-19T20:38:06.364Z,93738.31
2023-06-19T20:40:34.345Z,93731.81
2023-06-19T20:43:02.481Z,93731.13
2023-06-19T20:45:30.528Z,93731.19
2023-06-19T20:48:00.619Z,93736.38
2023-06-19T20:50:28.952Z,93738.47
2023-06-19T20:52:57.172Z,93745.41
2023-06-19T20:55:25.121Z,93742.28
2023-06-19T20:57:53.424Z,93744.47
2023-06-19T21:00:21.839Z,93740.69
2023-06-19T21:02:49.853Z,93746.06
2023-06-19T21:05:17.797Z,93743.88
2023-06-19T21:07:48.347Z,93742.97
2023-06-19T21:10:16.552Z,93750.34
2023-06-19T21:12:44.563Z,93756.50
2023-06-19T21:15:12.536Z,93747.50
2023-06-19T21:17:40.569Z,93753.72
2023-06-19T21:20:11.952Z,93760.69
2023-06-19T21:22:40.619Z,93763.03
2023-06-19T21:25:09.179Z,93761.16
2023-06-19T21:27:37.238Z,93763.84
2023-06-19T21:30:06.108Z,93764.66
2023-06-19T21:32:34.216Z,93757.66
2023-06-19T21:35:02.467Z,93757.59
2023-06-19T21:37:30.919Z,93769.63
2023-06-19T21:39:58.973Z,93767.22
2023-06-19T21:42:27.066Z,93763.50
2023-06-19T21:44:55.120Z,93761.13
2023-06-19T21:47:23.259Z,93748.53
2023-06-19T21:49:51.360Z,93751.22
2023-06-19T21:52:19.866Z,93762.19
2023-06-19T21:54:47.695Z,93766.53
2023-06-19T21:57:15.714Z,93757.75
2023-06-19T21:59:44.160Z,93767.03
2023-06-19T22:02:12.238Z,93765.38
2023-06-19T22:04:40.479Z,93760.84
2023-06-19T22:07:08.542Z,93759.75
2023-06-19T22:09:36.521Z,93775.69
2023-06-19T22:12:04.906Z,93779.25
2023-06-19T22:14:38.983Z,93777.91
2023-06-19T22:17:07.863Z,93786.06
2023-06-19T22:19:39.059Z,93788.56
2023-06-19T22:22:07.745Z,93780.81
2023-06-19T22:24:40.279Z,93785.66
2023-06-19T22:27:08.601Z,93782.44
2023-06-19T22:29:36.811Z,93779.75
2023-06-19T22:32:05.276Z,93791.09
2023-06-19T22:34:33.743Z,93792.69
2023-06-19T22:37:03.793Z,93783.56
2023-06-19T22:39:32.899Z,93791.09
2023-06-19T22:42:01.942Z,93795.44
2023-06-19T22:44:29.964Z,93796.28
2023-06-19T22:46:58.018Z,93781.25
2023-06-19T22:49:30.520Z,93793.31
2023-06-19T22:51:58.682Z,93790.34
2023-06-19T22:54:26.975Z,93792.00
2023-06-19T22:56:55.220Z,93788.25
2023-06-19T22:59:23.192Z,93797.13
2023-06-19T23:01:51.332Z,93789.09
2023-06-19T23:04:22.189Z,93795.59
2023-06-19T23:06:52.435Z,93787.81
2023-06-19T23:09:20.427Z,93796.41
2023-06-19T23:11:49.791Z,93791.94
2023-06-19T23:14:17.866Z,93789.47
2023-06-19T23:16:45.903Z,93789.47
2023-06-19T23:19:14.027Z,93784.69
2023-06-19T23:21:42.306Z,93782.81
2023-06-19T23:24:11.902Z,93786.09
2023-06-19T23:26:40.048Z,93777.75
2023-06-19T23:29:10.178Z,93772.69
2023-06-19T23:31:41.792Z,93769.50
2023-06-19T23:34:10.385Z,93777.81
2023-06-19T23:36:38.410Z,93779.69
2023-06-19T23:39:06.416Z,93770.34
2023-06-19T23:41:34.497Z,93780.56
2023-06-19T23:44:02.518Z,93771.44
2023-06-19T23:46:30.643Z,93768.16
2023-06-19T23:48:58.687Z,93769.78
2023-06-19T23:51:26.743Z,93774.13
2023-06-19T23:53:54.702Z,93775.97
2023-06-19T23:56:22.738Z,93774.16
2023-06-19T23:58:50.664Z,93769.03
